createdAt,value
2018-05-03T00:00:59.974Z,4.00
2018-05-03T00:01:59.969Z,4.00
2018-05-03T00:02:59.949Z,4.00
2018-05-03T00:03:59.942Z,4.00
2018-05-03T00:04:59.938Z,4.00
2018-05-03T00:05:59.930Z,4.00
2018-05-03T00:06:59.923Z,4.00
2018-05-03T00:07:59.917Z,4.00
2018-05-03T00:08:59.910Z,4.00
2018-05-03T00:09:59.901Z,4.00
2018-05-03T00:10:59.897Z,4.00
2018-05-03T00:11:59.889Z,4.00
2018-05-03T00:12:59.882Z,4.00
2018-05-03T00:13:59.877Z,4.00
2018-05-03T00:14:59.868Z,4.00
2018-05-03T00:15:59.862Z,4.00
2018-05-03T00:16:59.857Z,4.00
2018-05-03T00:17:59.857Z,4.00
2018-05-03T00:18:59.843Z,4.00
2018-05-03T00:19:59.836Z,4.00
2018-05-03T00:20:59.834Z,4.00
2018-05-03T00:21:59.822Z,4.00
2018-05-03T00:22:59.818Z,4.00
2018-05-03T00:23:59.808Z,4.00
2018-05-03T00:24:59.804Z,4.00
2018-05-03T00:25:59.794Z,4.00
2018-05-03T00:26:59.787Z,4.00
2018-05-03T00:27:59.782Z,4.00
2018-05-03T00:28:59.774Z,4.00
2018-05-03T00:29:59.767Z,4.00
2018-05-03T00:30:59.760Z,4.00
2018-05-03T00:31:59.752Z,4.00
2018-05-03T00:32:59.748Z,4.00
2018-05-03T00:33:59.741Z,4.00
2018-05-03T00:34:59.734Z,4.00
2018-05-03T00:35:59.728Z,4.00
2018-05-03T00:36:59.727Z,4.00
2018-05-03T00:37:59.715Z,4.00
2018-05-03T00:38:59.705Z,4.00
2018-05-03T00:39:59.698Z,4.00
2018-05-03T00:40:59.692Z,4.00
2018-05-03T00:41:59.686Z,4.00
2018-05-03T00:42:59.676Z,4.00
2018-05-03T00:43:59.672Z,4.00
2018-05-03T00:44:59.663Z,4.00
2018-05-03T00:45:59.658Z,4.00
2018-05-03T00:46:59.650Z,4.00
2018-05-03T00:47:59.642Z,4.00
2018-05-03T00:48:59.687Z,4.00
2018-05-03T00:49:59.629Z,4.00
2018-05-03T00:50:59.622Z,4.00
2018-05-03T00:51:59.614Z,4.00
2018-05-03T00:52:59.608Z,4.00
2018-05-03T00:53:59.602Z,4.00
2018-05-03T00:54:59.593Z,4.00
2018-05-03T00:55:59.587Z,4.00
2018-05-03T00:56:59.583Z,4.00
2018-05-03T00:57:59.575Z,4.00
2018-05-03T00:58:59.566Z,4.00
2018-05-03T00:59:59.560Z,4.00
2018-05-03T01:00:59.755Z,4.00
2018-05-03T01:01:59.547Z,4.00
2018-05-03T01:02:59.539Z,4.00
2018-05-03T01:03:59.533Z,4.00
2018-05-03T01:04:59.526Z,4.00
2018-05-03T01:05:59.519Z,4.00
2018-05-03T01:06:59.512Z,4.00
2018-05-03T01:07:59.506Z,4.00
2018-05-03T01:08:59.499Z,4.00
2018-05-03T01:09:59.491Z,4.00
2018-05-03T01:10:59.486Z,4.00
2018-05-03T01:11:59.479Z,4.00
2018-05-03T01:12:59.473Z,4.00
2018-05-03T01:13:59.465Z,4.00
2018-05-03T01:14:59.458Z,4.00
2018-05-03T01:15:59.451Z,4.00
2018-05-03T01:16:59.444Z,4.00
2018-05-03T01:17:59.442Z,4.00
2018-05-03T01:18:59.430Z,4.00
2018-05-03T01:19:59.424Z,4.00
2018-05-03T01:20:59.418Z,4.00
2018-05-03T01:21:59.424Z,4.00
2018-05-03T01:22:59.404Z,8.00
2018-05-03T01:23:59.398Z,4.00
2018-05-03T01:24:59.391Z,4.00
2018-05-03T01:25:59.384Z,4.00
2018-05-03T01:26:59.376Z,4.00
2018-05-03T01:27:59.370Z,4.00
2018-05-03T01:28:59.364Z,4.00
2018-05-03T01:29:59.357Z,4.00
2018-05-03T01:30:59.350Z,4.00
2018-05-03T01:31:59.343Z,4.00
2018-05-03T01:32:59.337Z,4.00
2018-05-03T01:33:59.330Z,4.00
2018-05-03T01:34:59.393Z,4.00
2018-05-03T01:35:59.316Z,4.00
2018-05-03T01:36:59.310Z,4.00
2018-05-03T01:37:59.305Z,4.00
2018-05-03T01:38:59.296Z,4.00
2018-05-03T01:39:59.289Z,4.00
2018-05-03T01:40:59.284Z,4.00
2018-05-03T01:41:59.277Z,4.00
2018-05-03T01:42:59.269Z,4.00
2018-05-03T01:43:59.264Z,4.00
2018-05-03T01:44:59.256Z,4.00
2018-05-03T01:45:59.251Z,4.00
2018-05-03T01:46:59.245Z,4.00
2018-05-03T01:47:59.236Z,4.00
2018-05-03T01:48:59.231Z,4.00
2018-05-03T01:49:59.223Z,4.00
2018-05-03T01:50:59.217Z,4.00
2018-05-03T01:51:59.210Z,4.00
2018-05-03T01:52:59.203Z,4.00
2018-05-03T01:53:59.197Z,4.00
2018-05-03T01:54:59.190Z,4.00
2018-05-03T01:55:59.185Z,4.00
2018-05-03T01:56:59.177Z,4.00
2018-05-03T01:57:59.170Z,4.00
2018-05-03T01:58:59.162Z,4.00
2018-05-03T01:59:59.156Z,4.00
2018-05-03T02:00:59.151Z,4.00
2018-05-03T02:01:59.143Z,4.00
2018-05-03T02:02:59.134Z,4.00
2018-05-03T02:03:59.128Z,4.00
2018-05-03T02:04:59.122Z,4.00
2018-05-03T02:05:59.118Z,4.00
2018-05-03T02:06:59.112Z,4.00
2018-05-03T02:07:59.103Z,4.00
2018-05-03T02:08:59.096Z,4.00
2018-05-03T02:09:59.088Z,4.00
2018-05-03T02:10:59.080Z,4.00
2018-05-03T02:11:59.074Z,4.00
2018-05-03T02:12:59.067Z,4.00
2018-05-03T02:13:59.061Z,4.00
2018-05-03T02:14:59.055Z,4.00
2018-05-03T02:15:59.048Z,4.00
2018-05-03T02:16:59.040Z,4.00
2018-05-03T02:17:59.084Z,4.00
2018-05-03T02:18:59.027Z,4.00
2018-05-03T02:19:59.021Z,4.00
2018-05-03T02:20:59.015Z,4.00
2018-05-03T02:21:59.008Z,4.00
2018-05-03T02:22:59.000Z,4.00
2018-05-03T02:23:58.994Z,4.00
2018-05-03T02:24:58.986Z,4.00
2018-05-03T02:25:58.985Z,4.00
2018-05-03T02:26:58.974Z,4.00
2018-05-03T02:27:58.966Z,4.00
2018-05-03T02:28:58.959Z,4.00
2018-05-03T02:29:58.955Z,4.00
2018-05-03T02:30:58.946Z,4.00
2018-05-03T02:31:58.941Z,4.00
2018-05-03T02:32:58.934Z,4.00
2018-05-03T02:33:58.928Z,4.00
2018-05-03T02:34:58.924Z,4.00
2018-05-03T02:35:59.112Z,4.00
2018-05-03T02:36:58.913Z,4.00
2018-05-03T02:37:58.904Z,4.00
2018-05-03T02:38:58.892Z,4.00
2018-05-03T02:39:58.885Z,4.00
2018-05-03T02:40:58.880Z,4.00
2018-05-03T02:41:58.877Z,4.00
2018-05-03T02:42:58.871Z,4.00
2018-05-03T02:43:58.871Z,4.00
2018-05-03T02:44:58.852Z,4.00
2018-05-03T02:45:58.851Z,4.00
2018-05-03T02:46:58.838Z,4.00
2018-05-03T02:47:58.834Z,4.00
2018-05-03T02:48:58.826Z,4.00
2018-05-03T02:49:58.820Z,4.00
2018-05-03T02:50:58.814Z,4.00
2018-05-03T02:51:58.805Z,4.00
2018-05-03T02:52:58.801Z,4.00
2018-05-03T02:53:58.791Z,4.00
2018-05-03T02:54:58.788Z,4.00
2018-05-03T02:55:58.778Z,4.00
2018-05-03T02:56:58.771Z,4.00
2018-05-03T02:57:58.764Z,4.00
2018-05-03T02:58:58.760Z,4.00
2018-05-03T02:59:58.751Z,4.00
2018-05-03T03:00:58.742Z,4.00
2018-05-03T03:01:58.735Z,4.00
2018-05-03T03:02:58.730Z,4.00
2018-05-03T03:03:58.721Z,4.00
2018-05-03T03:04:58.714Z,4.00
2018-05-03T03:05:58.708Z,4.00
2018-05-03T03:06:58.701Z,4.00
2018-05-03T03:07:58.700Z,4.00
2018-05-03T03:08:58.693Z,4.00
2018-05-03T03:09:58.680Z,4.00
2018-05-03T03:10:58.673Z,4.00
2018-05-03T03:11:58.667Z,4.00
2018-05-03T03:12:58.662Z,4.00
2018-05-03T03:13:58.653Z,4.00
2018-05-03T03:14:58.644Z,4.00
2018-05-03T03:15:58.639Z,4.00
2018-05-03T03:16:58.631Z,4.00
2018-05-03T03:17:58.625Z,4.00
2018-05-03T03:18:58.615Z,4.00
2018-05-03T03:19:58.608Z,4.00
2018-05-03T03:20:58.602Z,4.00
2018-05-03T03:21:58.684Z,4.00
2018-05-03T03:22:58.589Z,4.00
2018-05-03T03:23:58.580Z,4.00
2018-05-03T03:24:58.574Z,4.00
2018-05-03T03:25:58.567Z,4.00
2018-05-03T03:26:58.565Z,4.00
2018-05-03T03:27:58.552Z,4.00
2018-05-03T03:28:58.546Z,4.00
2018-05-03T03:29:58.539Z,4.00
2018-05-03T03:30:58.531Z,4.00
2018-05-03T03:31:58.529Z,4.00
2018-05-03T03:32:58.522Z,4.00
2018-05-03T03:33:58.510Z,4.00
2018-05-03T03:34:58.503Z,4.00
2018-05-03T03:35:58.496Z,4.00
2018-05-03T03:36:58.489Z,4.00
2018-05-03T03:37:58.482Z,4.00
2018-05-03T03:38:58.476Z,4.00
2018-05-03T03:39:58.469Z,4.00
2018-05-03T03:40:58.462Z,4.00
2018-05-03T03:41:58.454Z,4.00
2018-05-03T03:42:58.446Z,4.00
2018-05-03T03:43:58.439Z,4.00
2018-05-03T03:44:58.432Z,4.00
2018-05-03T03:45:58.426Z,4.00
2018-05-03T03:46:58.417Z,4.00
2018-05-03T03:47:58.416Z,4.00
2018-05-03T03:48:58.407Z,4.00
2018-05-03T03:49:58.396Z,4.00
2018-05-03T03:50:58.389Z,4.00
2018-05-03T03:51:58.383Z,4.00
2018-05-03T03:52:58.375Z,4.00
2018-05-03T03:53:58.374Z,4.00
2018-05-03T03:54:58.363Z,4.00
2018-05-03T03:55:58.354Z,4.00
2018-05-03T03:56:58.348Z,4.00
2018-05-03T03:57:58.341Z,4.00
2018-05-03T03:58:58.337Z,4.00
2018-05-03T03:59:58.327Z,4.00
2018-05-03T04:00:58.319Z,4.00
2018-05-03T04:01:58.312Z,4.00
2018-05-03T04:02:58.305Z,4.00
2018-05-03T04:03:58.299Z,4.00
2018-05-03T04:04:58.290Z,4.00
2018-05-03T04:05:58.284Z,4.00
2018-05-03T04:06:58.276Z,4.00
2018-05-03T04:07:58.271Z,4.00
2018-05-03T04:08:58.263Z,4.00
2018-05-03T04:09:58.257Z,4.00
2018-05-03T04:10:58.248Z,4.00
2018-05-03T04:11:58.241Z,4.00
2018-05-03T04:12:58.237Z,4.00
2018-05-03T04:13:58.227Z,4.00
2018-05-03T04:14:58.220Z,4.00
2018-05-03T04:15:58.213Z,4.00
2018-05-03T04:16:58.206Z,4.00
2018-05-03T04:17:58.401Z,4.00
2018-05-03T04:18:58.192Z,4.00
2018-05-03T04:19:58.185Z,4.00
2018-05-03T04:20:58.178Z,4.00
2018-05-03T04:21:58.171Z,4.00
2018-05-03T04:22:58.163Z,4.00
2018-05-03T04:23:58.156Z,4.00
2018-05-03T04:24:58.149Z,4.00
2018-05-03T04:25:58.142Z,4.00
2018-05-03T04:26:58.134Z,4.00
2018-05-03T04:27:58.128Z,4.00
2018-05-03T04:28:58.120Z,4.00
2018-05-03T04:29:58.113Z,4.00
2018-05-03T04:30:58.105Z,4.00
2018-05-03T04:31:58.098Z,4.00
2018-05-03T04:32:58.092Z,4.00
2018-05-03T04:33:58.085Z,4.00
2018-05-03T04:34:58.076Z,4.00
2018-05-03T04:35:58.078Z,4.00
2018-05-03T04:36:58.063Z,4.00
2018-05-03T04:37:58.056Z,4.00
2018-05-03T04:38:58.049Z,4.00
2018-05-03T04:39:58.042Z,4.00
2018-05-03T04:40:58.038Z,4.00
2018-05-03T04:41:58.027Z,4.00
2018-05-03T04:42:58.020Z,4.00
2018-05-03T04:43:58.015Z,4.00
2018-05-03T04:44:58.007Z,4.00
2018-05-03T04:45:58.006Z,4.00
2018-05-03T04:46:58.001Z,4.00
2018-05-03T04:47:57.982Z,4.00
2018-05-03T04:48:57.976Z,4.00
2018-05-03T04:49:57.969Z,4.00
2018-05-03T04:50:57.962Z,4.00
2018-05-03T04:51:57.954Z,4.00
2018-05-03T04:52:57.947Z,4.00
2018-05-03T04:53:57.944Z,4.00
2018-05-03T04:54:57.932Z,4.00
2018-05-03T04:55:57.925Z,4.00
2018-05-03T04:56:57.918Z,4.00
2018-05-03T04:57:57.911Z,4.00
2018-05-03T04:58:57.905Z,4.00
2018-05-03T04:59:57.905Z,4.00
2018-05-03T05:00:57.891Z,4.00
2018-05-03T05:01:57.891Z,4.00
2018-05-03T05:02:57.875Z,4.00
2018-05-03T05:03:57.869Z,4.00
2018-05-03T05:04:57.862Z,4.00
2018-05-03T05:05:57.853Z,4.00
2018-05-03T05:06:57.846Z,4.00
2018-05-03T05:07:57.839Z,4.00
2018-05-03T05:08:57.832Z,4.00
2018-05-03T05:09:57.824Z,4.00
2018-05-03T05:10:57.816Z,4.00
2018-05-03T05:11:58.011Z,4.00
2018-05-03T05:12:57.802Z,4.00
2018-05-03T05:13:57.796Z,4.00
2018-05-03T05:14:57.789Z,4.00
2018-05-03T05:15:57.780Z,4.00
2018-05-03T05:16:57.773Z,4.00
2018-05-03T05:17:58.011Z,4.00
2018-05-03T05:18:57.762Z,4.00
2018-05-03T05:19:57.752Z,4.00
2018-05-03T05:20:57.744Z,4.00
2018-05-03T05:21:57.737Z,4.00
2018-05-03T05:22:57.728Z,4.00
2018-05-03T05:23:57.721Z,4.00
2018-05-03T05:24:57.718Z,4.00
2018-05-03T05:25:57.707Z,4.00
2018-05-03T05:26:57.698Z,4.00
2018-05-03T05:27:57.691Z,4.00
2018-05-03T05:28:57.685Z,4.00
2018-05-03T05:29:57.878Z,4.00
2018-05-03T05:30:57.673Z,4.00
2018-05-03T05:31:57.662Z,4.00
2018-05-03T05:32:57.658Z,4.00
2018-05-03T05:33:57.648Z,4.00
2018-05-03T05:34:57.639Z,4.00
2018-05-03T05:35:57.633Z,4.00
2018-05-03T05:36:57.626Z,4.00
2018-05-03T05:37:57.620Z,4.00
2018-05-03T05:38:57.702Z,4.00
2018-05-03T05:39:57.603Z,4.00
2018-05-03T05:40:57.598Z,4.00
2018-05-03T05:41:57.790Z,4.00
2018-05-03T05:42:57.581Z,4.00
2018-05-03T05:43:57.656Z,4.00
2018-05-03T05:44:57.567Z,4.00
2018-05-03T05:45:57.560Z,4.00
2018-05-03T05:46:57.552Z,4.00
2018-05-03T05:47:57.547Z,4.00
2018-05-03T05:48:57.540Z,4.00
2018-05-03T05:49:57.531Z,4.00
2018-05-03T05:50:57.533Z,4.00
2018-05-03T05:51:57.517Z,4.00
2018-05-03T05:52:57.509Z,4.00
2018-05-03T05:53:57.504Z,4.00
2018-05-03T05:54:57.495Z,4.00
2018-05-03T05:55:57.486Z,4.00
2018-05-03T05:56:57.480Z,4.00
2018-05-03T05:57:57.474Z,4.00
2018-05-03T05:58:57.466Z,4.00
2018-05-03T05:59:57.660Z,4.00
2018-05-03T06:00:57.451Z,4.00
2018-05-03T06:01:57.444Z,4.00
2018-05-03T06:02:57.435Z,4.00
2018-05-03T06:03:57.429Z,4.00
2018-05-03T06:04:57.421Z,4.00
2018-05-03T06:05:57.413Z,4.00
2018-05-03T06:06:57.405Z,4.00
2018-05-03T06:07:57.399Z,4.00
2018-05-03T06:08:57.390Z,4.00
2018-05-03T06:09:57.386Z,4.00
2018-05-03T06:10:57.376Z,4.00
2018-05-03T06:11:57.569Z,4.00
2018-05-03T06:12:57.362Z,4.00
2018-05-03T06:13:57.354Z,4.00
2018-05-03T06:14:57.346Z,4.00
2018-05-03T06:15:57.340Z,4.00
2018-05-03T06:16:57.334Z,4.00
2018-05-03T06:17:57.525Z,4.00
2018-05-03T06:18:57.316Z,4.00
2018-05-03T06:19:57.313Z,4.00
2018-05-03T06:20:57.302Z,4.00
2018-05-03T06:21:57.295Z,4.00
2018-05-03T06:22:57.289Z,4.00
2018-05-03T06:23:57.281Z,4.00
2018-05-03T06:24:57.272Z,4.00
2018-05-03T06:25:57.334Z,4.00
2018-05-03T06:26:57.257Z,4.00
2018-05-03T06:27:57.254Z,4.00
2018-05-03T06:28:57.243Z,4.00
2018-05-03T06:29:57.235Z,4.00
2018-05-03T06:31:02.259Z,4.00
2018-05-03T06:31:57.221Z,4.00
2018-05-03T06:32:57.213Z,4.00
2018-05-03T06:33:57.206Z,4.00
2018-05-03T06:34:57.199Z,4.00
2018-05-03T06:35:57.392Z,4.00
2018-05-03T06:36:57.183Z,4.00
2018-05-03T06:37:57.177Z,4.00
2018-05-03T06:38:57.175Z,4.00
2018-05-03T06:39:57.165Z,4.00
2018-05-03T06:40:57.155Z,4.00
2018-05-03T06:41:57.148Z,4.00
2018-05-03T06:42:57.139Z,4.00
2018-05-03T06:43:57.132Z,4.00
2018-05-03T06:44:57.126Z,4.00
2018-05-03T06:45:57.119Z,4.00
2018-05-03T06:46:57.122Z,4.00
2018-05-03T06:47:57.102Z,4.00
2018-05-03T06:48:57.096Z,4.00
2018-05-03T06:49:57.089Z,4.00
2018-05-03T06:50:57.082Z,4.00
2018-05-03T06:51:57.080Z,4.00
2018-05-03T06:52:57.067Z,4.00
2018-05-03T06:53:57.060Z,4.00
2018-05-03T06:54:57.053Z,4.00
2018-05-03T06:55:57.045Z,4.00
2018-05-03T06:56:57.038Z,4.00
2018-05-03T06:57:57.031Z,4.00
2018-05-03T06:58:57.025Z,4.00
2018-05-03T06:59:57.017Z,4.00
2018-05-03T07:00:57.011Z,4.00
2018-05-03T07:01:57.002Z,4.00
2018-05-03T07:02:56.997Z,4.00
2018-05-03T07:03:57.022Z,4.00
2018-05-03T07:04:56.982Z,4.00
2018-05-03T07:05:56.989Z,4.00
2018-05-03T07:06:56.967Z,4.00
2018-05-03T07:07:56.960Z,4.00
2018-05-03T07:08:56.953Z,4.00
2018-05-03T07:09:56.987Z,4.00
2018-05-03T07:10:56.938Z,4.00
2018-05-03T07:11:56.931Z,4.00
2018-05-03T07:12:56.923Z,4.00
2018-05-03T07:13:56.915Z,4.00
2018-05-03T07:14:56.909Z,4.00
2018-05-03T07:15:56.900Z,4.00
2018-05-03T07:16:56.894Z,4.00
2018-05-03T07:17:56.886Z,4.00
2018-05-03T07:18:56.879Z,4.00
2018-05-03T07:19:56.872Z,4.00
2018-05-03T07:20:56.864Z,4.00
2018-05-03T07:21:56.859Z,4.00
2018-05-03T07:22:56.850Z,4.00
2018-05-03T07:23:56.843Z,4.00
2018-05-03T07:24:56.835Z,4.00
2018-05-03T07:25:56.829Z,4.00
2018-05-03T07:26:56.822Z,4.00
2018-05-03T07:27:56.814Z,4.00
2018-05-03T07:28:56.807Z,4.00
2018-05-03T07:29:56.800Z,4.00
2018-05-03T07:30:56.792Z,4.00
2018-05-03T07:31:56.786Z,4.00
2018-05-03T07:32:56.778Z,4.00
2018-05-03T07:33:56.777Z,4.00
2018-05-03T07:34:56.763Z,4.00
2018-05-03T07:35:56.756Z,4.00
2018-05-03T07:36:56.750Z,4.00
2018-05-03T07:37:56.741Z,4.00
2018-05-03T07:38:56.733Z,4.00
2018-05-03T07:39:56.726Z,4.00
2018-05-03T07:40:56.725Z,4.00
2018-05-03T07:41:56.713Z,4.00
2018-05-03T07:42:56.704Z,4.00
2018-05-03T07:43:56.698Z,4.00
2018-05-03T07:44:56.689Z,4.00
2018-05-03T07:45:56.683Z,4.00
2018-05-03T07:46:56.674Z,4.00
2018-05-03T07:47:56.666Z,4.00
2018-05-03T07:48:56.662Z,4.00
2018-05-03T07:49:56.652Z,4.00
2018-05-03T07:50:56.644Z,4.00
2018-05-03T07:51:56.638Z,4.00
2018-05-03T07:52:56.631Z,4.00
2018-05-03T07:53:56.622Z,4.00
2018-05-03T07:54:56.616Z,4.00
2018-05-03T07:55:56.607Z,4.00
2018-05-03T07:56:56.601Z,4.00
2018-05-03T07:57:56.598Z,4.00
2018-05-03T07:58:56.585Z,4.00
2018-05-03T07:59:56.578Z,4.00
2018-05-03T08:00:56.570Z,4.00
2018-05-03T08:01:56.563Z,4.00
2018-05-03T08:02:56.555Z,4.00
2018-05-03T08:03:56.550Z,4.00
2018-05-03T08:04:56.546Z,4.00
2018-05-03T08:05:56.536Z,4.00
2018-05-03T08:06:56.526Z,4.00
2018-05-03T08:07:56.522Z,4.00
2018-05-03T08:08:56.512Z,4.00
2018-05-03T08:09:56.505Z,4.00
2018-05-03T08:10:56.522Z,4.00
2018-05-03T08:11:56.491Z,4.00
2018-05-03T08:12:56.483Z,4.00
2018-05-03T08:13:56.477Z,4.00
2018-05-03T08:14:56.468Z,4.00
2018-05-03T08:15:56.460Z,4.00
2018-05-03T08:16:56.469Z,4.00
2018-05-03T08:17:56.647Z,4.00
2018-05-03T08:18:56.440Z,4.00
2018-05-03T08:19:56.431Z,4.00
2018-05-03T08:20:56.426Z,4.00
2018-05-03T08:21:56.419Z,4.00
2018-05-03T08:22:56.411Z,4.00
2018-05-03T08:23:56.402Z,4.00
2018-05-03T08:24:56.397Z,4.00
2018-05-03T08:25:56.389Z,4.00
2018-05-03T08:26:56.384Z,4.00
2018-05-03T08:27:56.374Z,4.00
2018-05-03T08:28:56.368Z,4.00
2018-05-03T08:29:56.360Z,4.00
2018-05-03T08:30:56.352Z,4.00
2018-05-03T08:31:56.345Z,4.00
2018-05-03T08:32:56.339Z,4.00
2018-05-03T08:33:56.331Z,4.00
2018-05-03T08:34:56.324Z,4.00
2018-05-03T08:35:56.317Z,4.00
2018-05-03T08:36:56.309Z,4.00
2018-05-03T08:37:56.301Z,4.00
2018-05-03T08:38:56.292Z,4.00
2018-05-03T08:39:56.287Z,4.00
2018-05-03T08:40:56.279Z,4.00
2018-05-03T08:41:56.280Z,4.00
2018-05-03T08:42:56.264Z,4.00
2018-05-03T08:43:56.257Z,4.00
2018-05-03T08:44:56.249Z,4.00
2018-05-03T08:45:56.242Z,4.00
2018-05-03T08:46:56.236Z,4.00
2018-05-03T08:47:56.227Z,4.00
2018-05-03T08:48:56.220Z,4.00
2018-05-03T08:49:56.212Z,4.00
2018-05-03T08:50:56.204Z,4.00
2018-05-03T08:51:56.200Z,4.00
2018-05-03T08:52:56.189Z,4.00
2018-05-03T08:53:56.183Z,4.00
2018-05-03T08:54:56.175Z,4.00
2018-05-03T08:55:56.168Z,4.00
2018-05-03T08:56:56.160Z,4.00
2018-05-03T08:57:56.154Z,4.00
2018-05-03T08:58:56.145Z,4.00
2018-05-03T08:59:56.139Z,4.00
2018-05-03T09:00:56.154Z,4.00
2018-05-03T09:01:56.151Z,4.00
2018-05-03T09:02:56.116Z,4.00
2018-05-03T09:03:56.108Z,4.00
2018-05-03T09:04:56.102Z,4.00
2018-05-03T09:05:56.095Z,4.00
2018-05-03T09:06:56.085Z,8.00
2018-05-03T09:07:56.102Z,8.00
2018-05-03T09:08:56.072Z,8.00
2018-05-03T09:09:56.064Z,8.00
2018-05-03T09:10:56.056Z,8.00
2018-05-03T09:11:56.049Z,8.00
2018-05-03T09:12:56.042Z,8.00
2018-05-03T09:13:56.035Z,8.00
2018-05-03T09:14:56.026Z,8.00
2018-05-03T09:15:56.020Z,8.00
2018-05-03T09:16:56.013Z,8.00
2018-05-03T09:17:56.208Z,8.00
2018-05-03T09:18:55.997Z,8.00
2018-05-03T09:19:55.992Z,12.00
2018-05-03T09:20:55.984Z,12.00
2018-05-03T09:21:55.976Z,8.00
2018-05-03T09:22:55.968Z,12.00
2018-05-03T09:23:55.961Z,12.00
2018-05-03T09:24:55.955Z,16.00
2018-05-03T09:25:55.947Z,16.00
2018-05-03T09:26:55.940Z,16.00
2018-05-03T09:27:55.932Z,16.00
2018-05-03T09:28:55.935Z,16.00
2018-05-03T09:29:56.119Z,12.00
2018-05-03T09:30:55.909Z,12.00
2018-05-03T09:31:55.911Z,16.00
2018-05-03T09:32:55.897Z,16.00
2018-05-03T09:33:55.888Z,16.00
2018-05-03T09:34:55.880Z,20.00
2018-05-03T09:35:55.873Z,20.00
2018-05-03T09:36:55.866Z,24.00
2018-05-03T09:37:55.860Z,24.00
2018-05-03T09:38:55.851Z,24.00
2018-05-03T09:39:55.846Z,28.00
2018-05-03T09:40:55.843Z,32.00
2018-05-03T09:41:56.031Z,32.00
2018-05-03T09:42:55.822Z,32.00
2018-05-03T09:43:55.814Z,36.00
2018-05-03T09:44:55.807Z,40.00
2018-05-03T09:45:55.801Z,44.00
2018-05-03T09:46:55.794Z,44.00
2018-05-03T09:47:55.787Z,48.00
2018-05-03T09:48:55.778Z,48.00
2018-05-03T09:49:55.771Z,56.00
2018-05-03T09:50:55.762Z,60.00
2018-05-03T09:51:55.755Z,68.00
2018-05-03T09:52:55.749Z,72.00
2018-05-03T09:53:55.741Z,68.00
2018-05-03T09:54:55.734Z,68.00
2018-05-03T09:55:55.728Z,72.00
2018-05-03T09:56:55.723Z,72.00
2018-05-03T09:57:55.713Z,80.00
2018-05-03T09:58:55.704Z,88.00
2018-05-03T09:59:55.897Z,92.00
2018-05-03T10:00:55.689Z,92.00
2018-05-03T10:01:55.684Z,96.00
2018-05-03T10:02:55.676Z,96.00
2018-05-03T10:03:55.667Z,104.00
2018-05-03T10:04:55.661Z,104.00
2018-05-03T10:05:55.657Z,108.00
2018-05-03T10:06:55.644Z,108.00
2018-05-03T10:07:55.638Z,112.00
2018-05-03T10:08:55.630Z,124.00
2018-05-03T10:09:55.623Z,140.00
2018-05-03T10:10:55.616Z,152.00
2018-05-03T10:11:55.607Z,156.00
2018-05-03T10:12:55.600Z,148.00
2018-05-03T10:13:55.592Z,144.00
2018-05-03T10:14:55.587Z,152.00
2018-05-03T10:15:55.576Z,168.00
2018-05-03T10:16:55.569Z,180.00
2018-05-03T10:17:55.762Z,188.00
2018-05-03T10:18:55.554Z,188.00
2018-05-03T10:19:55.548Z,192.00
2018-05-03T10:20:55.541Z,200.00
2018-05-03T10:21:55.536Z,208.00
2018-05-03T10:22:55.524Z,220.00
2018-05-03T10:23:55.517Z,224.00
2018-05-03T10:24:55.509Z,228.00
2018-05-03T10:25:55.502Z,228.00
2018-05-03T10:26:55.498Z,220.00
2018-05-03T10:27:55.488Z,208.00
2018-05-03T10:28:55.480Z,204.00
2018-05-03T10:29:55.475Z,196.00
2018-05-03T10:30:55.468Z,184.00
2018-05-03T10:31:55.458Z,180.00
2018-05-03T10:32:55.449Z,176.00
2018-05-03T10:33:55.445Z,168.00
2018-05-03T10:34:55.434Z,164.00
2018-05-03T10:35:55.445Z,156.00
2018-05-03T10:36:55.425Z,156.00
2018-05-03T10:37:55.412Z,152.00
2018-05-03T10:38:55.405Z,148.00
2018-05-03T10:39:55.400Z,148.00
2018-05-03T10:40:55.390Z,140.00
2018-05-03T10:41:55.430Z,140.00
2018-05-03T10:42:55.379Z,140.00
2018-05-03T10:43:55.371Z,144.00
2018-05-03T10:44:55.365Z,148.00
2018-05-03T10:45:55.354Z,152.00
2018-05-03T10:46:55.348Z,156.00
2018-05-03T10:47:55.438Z,160.00
2018-05-03T10:48:55.331Z,164.00
2018-05-03T10:49:55.324Z,168.00
2018-05-03T10:50:55.318Z,176.00
2018-05-03T10:51:55.309Z,184.00
2018-05-03T10:52:55.304Z,196.00
2018-05-03T10:53:55.299Z,208.00
2018-05-03T10:54:55.291Z,220.00
2018-05-03T10:55:55.279Z,248.00
2018-05-03T10:56:55.271Z,304.00
2018-05-03T10:57:55.262Z,352.00
2018-05-03T10:58:55.263Z,388.00
2018-05-03T10:59:55.271Z,372.00
2018-05-03T11:00:55.265Z,372.00
2018-05-03T11:01:55.235Z,344.00
2018-05-03T11:02:55.225Z,328.00
2018-05-03T11:03:55.218Z,316.00
2018-05-03T11:04:55.211Z,344.00
2018-05-03T11:05:55.204Z,360.00
2018-05-03T11:06:55.196Z,372.00
2018-05-03T11:07:55.189Z,396.00
2018-05-03T11:08:55.182Z,400.00
2018-05-03T11:09:55.176Z,412.00
2018-05-03T11:10:55.169Z,420.00
2018-05-03T11:11:55.161Z,428.00
2018-05-03T11:12:55.154Z,460.00
2018-05-03T11:13:55.148Z,492.00
2018-05-03T11:14:55.140Z,480.00
2018-05-03T11:15:55.132Z,476.00
2018-05-03T11:16:55.125Z,472.00
2018-05-03T11:17:55.118Z,456.00
2018-05-03T11:18:55.112Z,436.00
2018-05-03T11:19:55.107Z,440.00
2018-05-03T11:20:55.111Z,436.00
2018-05-03T11:21:55.091Z,456.00
2018-05-03T11:22:55.089Z,456.00
2018-05-03T11:23:55.077Z,460.00
2018-05-03T11:24:55.073Z,476.00
2018-05-03T11:25:55.103Z,492.00
2018-05-03T11:26:55.078Z,488.00
2018-05-03T11:27:55.058Z,468.00
2018-05-03T11:28:55.059Z,500.00
2018-05-03T11:29:55.234Z,568.00
2018-05-03T11:30:55.027Z,672.00
2018-05-03T11:31:55.030Z,636.00
2018-05-03T11:32:55.018Z,956.00
2018-05-03T11:33:55.075Z,1344.00
2018-05-03T11:34:54.999Z,1432.00
2018-05-03T11:35:54.991Z,1544.00
2018-05-03T11:36:55.009Z,1028.00
2018-05-03T11:37:54.979Z,1556.00
2018-05-03T11:38:54.973Z,1524.00
2018-05-03T11:39:54.968Z,1636.00
2018-05-03T11:40:54.960Z,1612.00
2018-05-03T11:41:54.952Z,1680.00
2018-05-03T11:42:54.945Z,1720.00
2018-05-03T11:43:54.938Z,1620.00
2018-05-03T11:44:54.933Z,1692.00
2018-05-03T11:45:54.929Z,1708.00
2018-05-03T11:46:54.924Z,1704.00
2018-05-03T11:47:54.913Z,1636.00
2018-05-03T11:48:54.908Z,1552.00
2018-05-03T11:49:54.905Z,1544.00
2018-05-03T11:50:54.907Z,1656.00
2018-05-03T11:51:54.890Z,1724.00
2018-05-03T11:52:54.884Z,1680.00
2018-05-03T11:53:54.877Z,1588.00
2018-05-03T11:54:54.870Z,1776.00
2018-05-03T11:55:54.867Z,1772.00
2018-05-03T11:56:54.858Z,1656.00
2018-05-03T11:57:54.853Z,1420.00
2018-05-03T11:58:54.848Z,1332.00
2018-05-03T11:59:54.992Z,1180.00
2018-05-03T12:00:54.836Z,1036.00
2018-05-03T12:01:54.838Z,1120.00
2018-05-03T12:02:54.824Z,900.00
2018-05-03T12:03:54.819Z,700.00
2018-05-03T12:04:54.844Z,572.00
2018-05-03T12:05:54.885Z,568.00
2018-05-03T12:06:54.802Z,660.00
2018-05-03T12:07:54.799Z,760.00
2018-05-03T12:08:54.793Z,916.00
2018-05-03T12:09:54.786Z,1356.00
2018-05-03T12:10:54.780Z,1656.00
2018-05-03T12:11:54.775Z,1772.00
2018-05-03T12:12:54.770Z,852.00
2018-05-03T12:13:54.765Z,664.00
2018-05-03T12:14:54.759Z,644.00
2018-05-03T12:15:54.755Z,812.00
2018-05-03T12:16:54.748Z,656.00
2018-05-03T12:17:54.742Z,636.00
2018-05-03T12:18:54.734Z,780.00
2018-05-03T12:19:54.729Z,1036.00
2018-05-03T12:20:54.725Z,1556.00
2018-05-03T12:21:54.719Z,1524.00
2018-05-03T12:22:54.712Z,1248.00
2018-05-03T12:23:54.707Z,1084.00
2018-05-03T12:24:54.702Z,848.00
2018-05-03T12:25:54.696Z,948.00
2018-05-03T12:26:54.690Z,1176.00
2018-05-03T12:27:54.684Z,1684.00
2018-05-03T12:28:54.682Z,1764.00
2018-05-03T12:29:54.676Z,1764.00
2018-05-03T12:30:54.668Z,1860.00
2018-05-03T12:31:54.663Z,1500.00
2018-05-03T12:32:54.659Z,1728.00
2018-05-03T12:33:54.653Z,1852.00
2018-05-03T12:34:54.667Z,1840.00
2018-05-03T12:35:54.643Z,1652.00
2018-05-03T12:36:54.638Z,2056.00
2018-05-03T12:37:54.631Z,2160.00
2018-05-03T12:38:54.626Z,2168.00
2018-05-03T12:39:54.621Z,2048.00
2018-05-03T12:40:54.617Z,1784.00
2018-05-03T12:41:54.613Z,1864.00
2018-05-03T12:42:54.607Z,2080.00
2018-05-03T12:43:54.604Z,2040.00
2018-05-03T12:44:54.599Z,1896.00
2018-05-03T12:45:54.597Z,1840.00
2018-05-03T12:46:54.590Z,1940.00
2018-05-03T12:47:54.585Z,1640.00
2018-05-03T12:48:54.585Z,1404.00
2018-05-03T12:49:54.588Z,1332.00
2018-05-03T12:50:54.571Z,1572.00
2018-05-03T12:51:54.568Z,1776.00
2018-05-03T12:52:54.565Z,1868.00
2018-05-03T12:53:54.561Z,1900.00
2018-05-03T12:54:54.555Z,1856.00
2018-05-03T12:55:54.553Z,1840.00
2018-05-03T12:56:54.548Z,1856.00
2018-05-03T12:57:54.545Z,1860.00
2018-05-03T12:58:54.541Z,1884.00
2018-05-03T12:59:54.537Z,1884.00
2018-05-03T13:00:54.540Z,1896.00
2018-05-03T13:01:54.557Z,1876.00
2018-05-03T13:02:54.551Z,1852.00